Fort Morgan, CO

1:59 PM MDT on August 24, 2016 (GMT -0600)
Fort Morgan | | Change Station

Elev 4334 ft 40.26 °N, 103.80 °W | Updated 24 seconds ago

Overcast
Overcast
66.6 °F
Feels Like 66.6 °F
N
0.0
Wind Variable Wind from ENE
Gusts 0.0 mph

Today
High -- | Low -- °F
--% Chance of Precip.
Yesterday
High -- | Low -- °F
Precip. -- in
Pressure 30.23 in
Visibility 10.0 miles
Clouds Overcast 10000 ft
Dew Point 47 °F
Humidity 49%
Rainfall 0.00 in
Snow Depth Not available.
6:15 AM 7:38 PM
Waning Gibbous, 54% visible
METAR KFMM 241935Z AUTO 11006KT 10SM OVC100 19/05 A3023 RMK AO2 T01900045
Pressure 30.23 in
Visibility 10.0 miles
Clouds Overcast 10000 ft
Dew Point 47 °F
Humidity 49%
Rainfall 0.00 in
Snow Depth Not available.
6:15 AM 7:38 PM
Waning Gibbous, 54% visible
METAR KFMM 241935Z AUTO 11006KT 10SM OVC100 19/05 A3023 RMK AO2 T01900045

10-Day Weather Forecast

Almanac

Astronomy

Aug. 24, 2016 Rise Set
Actual Time
Civil Twilight
Nautical Twilight
Astronomical Twilight
Moon
Length of Visible Light
Length of Day
Tomorrow will be .
, % of the Moon is Illuminated

Today's Extremes

State Highs State Lows

Community

WunderPhotos

Upload Photos

1,934,690 photos uploaded!

WunderBlog® & News

Nearby

Air Quality

  Air Quality AQ Index Pollutant
Not available.

Snow Depth

Station Depth Elevation

Earthquake Activity

City Distance Mag. Time & Date
Minimum magnitude displayed is 2.5.

Coastal Water Temperatures

Place Temperature

Stations

Nearby Weather Stations

Station Location Temp. Windchill Dew Point Humidity Wind Precip. Elev Updated Type
                   

Watches & Warnings

There are currently no watches in effect.